sensor_id;sensor_type;location;lat;lon;timestamp;P1;durP1;ratioP1;P2;durP2;ratioP2
14013;SDS011;49110;52.584;13.408;2023-05-17T00:00:48;7.13;;;2.80;;
14013;SDS011;49110;52.584;13.408;2023-05-17T00:01:48;8.77;;;2.77;;
14013;SDS011;49110;52.584;13.408;2023-05-17T00:02:49;9.63;;;2.87;;
14013;SDS011;49110;52.584;13.408;2023-05-17T00:03:49;7.57;;;2.33;;
14013;SDS011;49110;52.584;13.408;2023-05-17T00:04:53;7.73;;;2.50;;
14013;SDS011;49110;52.584;13.408;2023-05-17T00:05:53;5.13;;;2.17;;
14013;SDS011;49110;52.584;13.408;2023-05-17T00:06:53;8.93;;;2.50;;
14013;SDS011;49110;52.584;13.408;2023-05-17T00:07:54;6.87;;;2.70;;
14013;SDS011;49110;52.584;13.408;2023-05-17T00:08:54;7.53;;;2.40;;
14013;SDS011;49110;52.584;13.408;2023-05-17T00:09:55;5.67;;;2.33;;
14013;SDS011;49110;52.584;13.408;2023-05-17T00:10:56;6.10;;;2.50;;
14013;SDS011;49110;52.584;13.408;2023-05-17T00:11:56;5.53;;;2.73;;
14013;SDS011;49110;52.584;13.408;2023-05-17T00:12:57;6.27;;;2.43;;
14013;SDS011;49110;52.584;13.408;2023-05-17T00:13:57;6.40;;;2.90;;
14013;SDS011;49110;52.584;13.408;2023-05-17T00:14:57;6.37;;;2.67;;
14013;SDS011;49110;52.584;13.408;2023-05-17T00:15:58;4.97;;;2.27;;
14013;SDS011;49110;52.584;13.408;2023-05-17T00:16:58;7.33;;;2.80;;
14013;SDS011;49110;52.584;13.408;2023-05-17T00:17:59;5.43;;;2.57;;
14013;SDS011;49110;52.584;13.408;2023-05-17T00:18:59;8.77;;;2.73;;
14013;SDS011;49110;52.584;13.408;2023-05-17T00:20:00;5.73;;;2.53;;
14013;SDS011;49110;52.584;13.408;2023-05-17T00:21:00;8.43;;;2.77;;
14013;SDS011;49110;52.584;13.408;2023-05-17T00:22:01;8.07;;;2.60;;
14013;SDS011;49110;52.584;13.408;2023-05-17T00:23:01;8.57;;;2.43;;
14013;SDS011;49110;52.584;13.408;2023-05-17T00:24:03;6.63;;;2.60;;
14013;SDS011;49110;52.584;13.408;2023-05-17T00:25:03;5.80;;;2.83;;
14013;SDS011;49110;52.584;13.408;2023-05-17T00:26:04;6.00;;;2.87;;
14013;SDS011;49110;52.584;13.408;2023-05-17T00:27:05;7.67;;;3.13;;
14013;SDS011;49110;52.584;13.408;2023-05-17T00:28:05;8.03;;;2.97;;
14013;SDS011;49110;52.584;13.408;2023-05-17T00:29:05;5.97;;;2.87;;
14013;SDS011;49110;52.584;13.408;2023-05-17T00:30:06;7.47;;;3.00;;
14013;SDS011;49110;52.584;13.408;2023-05-17T00:31:07;8.83;;;3.33;;
14013;SDS011;49110;52.584;13.408;2023-05-17T00:32:07;6.77;;;2.97;;
14013;SDS011;49110;52.584;13.408;2023-05-17T00:33:08;8.17;;;3.60;;
14013;SDS011;49110;52.584;13.408;2023-05-17T00:34:08;6.50;;;2.77;;
14013;SDS011;49110;52.584;13.408;2023-05-17T00:35:09;9.13;;;2.90;;
14013;SDS011;49110;52.584;13.408;2023-05-17T00:36:09;8.20;;;2.70;;
14013;SDS011;49110;52.584;13.408;2023-05-17T00:37:10;9.37;;;3.40;;
14013;SDS011;49110;52.584;13.408;2023-05-17T00:38:10;9.07;;;3.77;;
14013;SDS011;49110;52.584;13.408;2023-05-17T00:39:10;7.70;;;3.30;;
14013;SDS011;49110;52.584;13.408;2023-05-17T00:40:11;7.13;;;3.00;;
14013;SDS011;49110;52.584;13.408;2023-05-17T00:41:13;7.20;;;3.13;;
14013;SDS011;49110;52.584;13.408;2023-05-17T00:42:13;8.50;;;3.47;;
14013;SDS011;49110;52.584;13.408;2023-05-17T00:43:14;10.00;;;3.27;;
14013;SDS011;49110;52.584;13.408;2023-05-17T00:44:14;8.43;;;3.50;;
14013;SDS011;49110;52.584;13.408;2023-05-17T00:45:15;8.20;;;3.10;;
14013;SDS011;49110;52.584;13.408;2023-05-17T00:46:15;11.20;;;3.50;;
14013;SDS011;49110;52.584;13.408;2023-05-17T00:47:16;7.80;;;3.03;;
14013;SDS011;49110;52.584;13.408;2023-05-17T00:48:17;8.37;;;2.87;;
14013;SDS011;49110;52.584;13.408;2023-05-17T00:49:19;7.30;;;3.50;;
14013;SDS011;49110;52.584;13.408;2023-05-17T00:50:20;8.73;;;3.43;;
14013;SDS011;49110;52.584;13.408;2023-05-17T00:51:20;6.93;;;3.47;;
14013;SDS011;49110;52.584;13.408;2023-05-17T00:52:22;9.07;;;3.50;;
14013;SDS011;49110;52.584;13.408;2023-05-17T00:53:22;10.07;;;3.37;;
14013;SDS011;49110;52.584;13.408;2023-05-17T00:54:23;9.30;;;3.50;;
14013;SDS011;49110;52.584;13.408;2023-05-17T00:55:25;12.40;;;3.40;;
14013;SDS011;49110;52.584;13.408;2023-05-17T00:56:26;10.17;;;3.33;;
14013;SDS011;49110;52.584;13.408;2023-05-17T00:57:26;6.57;;;3.00;;
14013;SDS011;49110;52.584;13.408;2023-05-17T00:58:28;6.83;;;2.80;;
14013;SDS011;49110;52.584;13.408;2023-05-17T00:59:29;10.23;;;3.40;;
14013;SDS011;49110;52.584;13.408;2023-05-17T01:00:30;9.90;;;3.90;;
14013;SDS011;49110;52.584;13.408;2023-05-17T01:01:32;7.30;;;3.63;;
14013;SDS011;49110;52.584;13.408;2023-05-17T01:02:34;8.77;;;4.07;;
14013;SDS011;49110;52.584;13.408;2023-05-17T01:03:34;9.00;;;3.77;;
14013;SDS011;49110;52.584;13.408;2023-05-17T01:04:35;8.73;;;3.67;;
14013;SDS011;49110;52.584;13.408;2023-05-17T01:05:37;10.53;;;3.87;;
14013;SDS011;49110;52.584;13.408;2023-05-17T01:06:37;9.80;;;4.07;;
14013;SDS011;49110;52.584;13.408;2023-05-17T01:07:38;9.33;;;4.10;;
14013;SDS011;49110;52.584;13.408;2023-05-17T01:08:39;9.33;;;3.60;;
14013;SDS011;49110;52.584;13.408;2023-05-17T01:09:40;9.07;;;3.53;;
14013;SDS011;49110;52.584;13.408;2023-05-17T01:10:51;10.67;;;4.30;;
14013;SDS011;49110;52.584;13.408;2023-05-17T01:13:02;9.20;;;3.80;;
14013;SDS011;49110;52.584;13.408;2023-05-17T01:14:16;8.77;;;3.90;;
14013;SDS011;49110;52.584;13.408;2023-05-17T01:15:30;5.33;;;3.47;;
14013;SDS011;49110;52.584;13.408;2023-05-17T01:16:38;9.10;;;4.07;;
14013;SDS011;49110;52.584;13.408;2023-05-17T01:17:59;11.97;;;4.13;;
14013;SDS011;49110;52.584;13.408;2023-05-17T01:19:15;11.33;;;4.00;;
14013;SDS011;49110;52.584;13.408;2023-05-17T01:20:39;9.53;;;4.13;;
14013;SDS011;49110;52.584;13.408;2023-05-17T01:23:16;14.70;;;3.77;;
14013;SDS011;49110;52.584;13.408;2023-05-17T01:24:39;12.50;;;4.13;;
14013;SDS011;49110;52.584;13.408;2023-05-17T01:27:12;15.43;;;4.10;;
14013;SDS011;49110;52.584;13.408;2023-05-17T01:28:14;9.87;;;3.83;;
14013;SDS011;49110;52.584;13.408;2023-05-17T01:29:16;10.00;;;3.67;;
14013;SDS011;49110;52.584;13.408;2023-05-17T01:30:21;7.73;;;3.33;;
14013;SDS011;49110;52.584;13.408;2023-05-17T01:31:25;11.43;;;4.03;;
14013;SDS011;49110;52.584;13.408;2023-05-17T01:32:25;10.47;;;4.07;;
14013;SDS011;49110;52.584;13.408;2023-05-17T01:33:27;10.00;;;3.37;;
14013;SDS011;49110;52.584;13.408;2023-05-17T01:34:29;10.87;;;4.03;;
14013;SDS011;49110;52.584;13.408;2023-05-17T01:35:30;10.17;;;3.70;;
14013;SDS011;49110;52.584;13.408;2023-05-17T01:36:30;12.40;;;3.90;;
14013;SDS011;49110;52.584;13.408;2023-05-17T01:37:30;7.80;;;3.63;;
14013;SDS011;49110;52.584;13.408;2023-05-17T01:38:31;10.63;;;4.17;;
14013;SDS011;49110;52.584;13.408;2023-05-17T01:39:31;10.10;;;3.60;;
14013;SDS011;49110;52.584;13.408;2023-05-17T01:40:32;11.17;;;3.93;;
14013;SDS011;49110;52.584;13.408;2023-05-17T01:41:36;10.13;;;4.20;;
14013;SDS011;49110;52.584;13.408;2023-05-17T01:42:40;11.33;;;4.40;;
14013;SDS011;49110;52.584;13.408;2023-05-17T01:43:59;9.00;;;4.47;;
14013;SDS011;49110;52.584;13.408;2023-05-17T01:45:11;11.17;;;4.00;;
14013;SDS011;49110;52.584;13.408;2023-05-17T01:46:24;13.27;;;4.47;;
14013;SDS011;49110;52.584;13.408;2023-05-17T01:47:40;11.10;;;4.37;;
14013;SDS011;49110;52.584;13.408;2023-05-17T01:48:51;10.90;;;4.07;;
14013;SDS011;49110;52.584;13.408;2023-05-17T01:49:59;13.50;;;4.43;;
14013;SDS011;49110;52.584;13.408;2023-05-17T01:51:04;9.33;;;3.97;;
14013;SDS011;49110;52.584;13.408;2023-05-17T01:52:12;8.47;;;3.80;;
14013;SDS011;49110;52.584;13.408;2023-05-17T01:53:28;10.23;;;4.17;;
14013;SDS011;49110;52.584;13.408;2023-05-17T01:54:36;9.97;;;4.03;;
14013;SDS011;49110;52.584;13.408;2023-05-17T01:55:42;10.20;;;3.83;;
14013;SDS011;49110;52.584;13.408;2023-05-17T01:56:50;13.30;;;4.30;;
14013;SDS011;49110;52.584;13.408;2023-05-17T01:57:56;12.80;;;4.30;;
14013;SDS011;49110;52.584;13.408;2023-05-17T01:58:58;9.93;;;4.10;;
14013;SDS011;49110;52.584;13.408;2023-05-17T02:00:03;10.90;;;3.97;;
14013;SDS011;49110;52.584;13.408;2023-05-17T02:01:08;12.40;;;4.87;;
14013;SDS011;49110;52.584;13.408;2023-05-17T02:02:10;12.73;;;4.87;;
14013;SDS011;49110;52.584;13.408;2023-05-17T02:03:11;11.93;;;4.20;;
14013;SDS011;49110;52.584;13.408;2023-05-17T02:04:18;11.73;;;4.37;;
14013;SDS011;49110;52.584;13.408;2023-05-17T02:05:19;7.97;;;3.70;;
14013;SDS011;49110;52.584;13.408;2023-05-17T02:06:19;12.73;;;4.07;;
14013;SDS011;49110;52.584;13.408;2023-05-17T02:07:20;13.70;;;4.57;;
14013;SDS011;49110;52.584;13.408;2023-05-17T02:08:20;7.77;;;4.10;;
14013;SDS011;49110;52.584;13.408;2023-05-17T02:09:21;9.97;;;4.37;;
14013;SDS011;49110;52.584;13.408;2023-05-17T02:10:21;13.93;;;4.00;;
14013;SDS011;49110;52.584;13.408;2023-05-17T02:11:22;12.30;;;4.40;;
14013;SDS011;49110;52.584;13.408;2023-05-17T02:12:22;8.23;;;3.97;;
14013;SDS011;49110;52.584;13.408;2023-05-17T02:13:24;10.70;;;3.77;;
14013;SDS011;49110;52.584;13.408;2023-05-17T02:14:24;10.63;;;4.00;;
14013;SDS011;49110;52.584;13.408;2023-05-17T02:15:25;13.60;;;4.70;;
14013;SDS011;49110;52.584;13.408;2023-05-17T02:16:25;8.37;;;3.67;;
14013;SDS011;49110;52.584;13.408;2023-05-17T02:17:26;9.77;;;4.00;;
14013;SDS011;49110;52.584;13.408;2023-05-17T02:18:26;11.33;;;4.57;;
14013;SDS011;49110;52.584;13.408;2023-05-17T02:19:27;10.53;;;4.07;;
14013;SDS011;49110;52.584;13.408;2023-05-17T02:20:28;10.50;;;4.30;;
14013;SDS011;49110;52.584;13.408;2023-05-17T02:21:28;12.77;;;4.10;;
14013;SDS011;49110;52.584;13.408;2023-05-17T02:22:29;12.80;;;4.23;;
14013;SDS011;49110;52.584;13.408;2023-05-17T02:23:29;9.93;;;3.73;;
14013;SDS011;49110;52.584;13.408;2023-05-17T02:24:30;13.03;;;4.23;;
14013;SDS011;49110;52.584;13.408;2023-05-17T02:25:30;12.30;;;3.90;;
14013;SDS011;49110;52.584;13.408;2023-05-17T02:26:31;10.13;;;4.07;;
14013;SDS011;49110;52.584;13.408;2023-05-17T02:27:31;11.13;;;4.00;;
14013;SDS011;49110;52.584;13.408;2023-05-17T02:28:32;10.03;;;3.90;;
14013;SDS011;49110;52.584;13.408;2023-05-17T02:29:32;12.67;;;4.47;;
14013;SDS011;49110;52.584;13.408;2023-05-17T02:30:33;11.30;;;4.17;;
14013;SDS011;49110;52.584;13.408;2023-05-17T02:31:33;9.87;;;4.20;;
14013;SDS011;49110;52.584;13.408;2023-05-17T02:32:33;9.93;;;3.83;;
14013;SDS011;49110;52.584;13.408;2023-05-17T02:33:34;9.47;;;3.87;;
14013;SDS011;49110;52.584;13.408;2023-05-17T02:34:34;9.40;;;3.83;;
14013;SDS011;49110;52.584;13.408;2023-05-17T02:35:35;13.00;;;4.03;;
14013;SDS011;49110;52.584;13.408;2023-05-17T02:36:35;7.93;;;3.97;;
14013;SDS011;49110;52.584;13.408;2023-05-17T02:37:36;9.30;;;3.90;;
14013;SDS011;49110;52.584;13.408;2023-05-17T02:38:36;10.13;;;4.17;;
14013;SDS011;49110;52.584;13.408;2023-05-17T02:39:37;10.30;;;3.40;;
14013;SDS011;49110;52.584;13.408;2023-05-17T02:40:39;12.10;;;3.87;;
14013;SDS011;49110;52.584;13.408;2023-05-17T02:41:40;9.37;;;3.90;;
14013;SDS011;49110;52.584;13.408;2023-05-17T02:42:40;12.00;;;4.30;;
14013;SDS011;49110;52.584;13.408;2023-05-17T02:43:41;10.20;;;4.03;;
14013;SDS011;49110;52.584;13.408;2023-05-17T02:44:41;9.00;;;3.97;;
14013;SDS011;49110;52.584;13.408;2023-05-17T02:45:42;9.80;;;4.20;;
14013;SDS011;49110;52.584;13.408;2023-05-17T02:46:43;9.90;;;3.93;;
14013;SDS011;49110;52.584;13.408;2023-05-17T02:47:44;10.80;;;4.10;;
14013;SDS011;49110;52.584;13.408;2023-05-17T02:48:44;10.57;;;3.90;;
14013;SDS011;49110;52.584;13.408;2023-05-17T02:49:45;6.87;;;3.63;;
14013;SDS011;49110;52.584;13.408;2023-05-17T02:50:46;10.50;;;4.73;;
14013;SDS011;49110;52.584;13.408;2023-05-17T02:51:46;12.80;;;4.10;;
14013;SDS011;49110;52.584;13.408;2023-05-17T02:52:47;9.57;;;3.80;;
14013;SDS011;49110;52.584;13.408;2023-05-17T02:53:47;11.53;;;4.10;;
14013;SDS011;49110;52.584;13.408;2023-05-17T02:54:47;11.23;;;3.97;;
14013;SDS011;49110;52.584;13.408;2023-05-17T02:55:48;9.73;;;4.07;;
14013;SDS011;49110;52.584;13.408;2023-05-17T02:56:48;10.13;;;3.50;;
14013;SDS011;49110;52.584;13.408;2023-05-17T02:57:49;11.83;;;4.37;;
14013;SDS011;49110;52.584;13.408;2023-05-17T02:58:50;10.37;;;4.30;;
14013;SDS011;49110;52.584;13.408;2023-05-17T02:59:50;10.73;;;3.87;;
14013;SDS011;49110;52.584;13.408;2023-05-17T03:00:51;9.17;;;4.03;;
14013;SDS011;49110;52.584;13.408;2023-05-17T03:01:51;11.43;;;3.97;;
14013;SDS011;49110;52.584;13.408;2023-05-17T03:02:52;11.60;;;4.53;;
14013;SDS011;49110;52.584;13.408;2023-05-17T03:03:52;10.90;;;4.50;;
14013;SDS011;49110;52.584;13.408;2023-05-17T03:04:53;13.00;;;5.00;;
14013;SDS011;49110;52.584;13.408;2023-05-17T03:05:53;12.20;;;4.67;;
14013;SDS011;49110;52.584;13.408;2023-05-17T03:06:53;8.53;;;4.17;;
14013;SDS011;49110;52.584;13.408;2023-05-17T03:07:54;11.83;;;4.57;;
14013;SDS011;49110;52.584;13.408;2023-05-17T03:08:55;13.03;;;4.90;;
14013;SDS011;49110;52.584;13.408;2023-05-17T03:09:55;11.17;;;4.60;;
14013;SDS011;49110;52.584;13.408;2023-05-17T03:10:56;13.20;;;4.83;;
14013;SDS011;49110;52.584;13.408;2023-05-17T03:11:56;10.40;;;4.50;;
14013;SDS011;49110;52.584;13.408;2023-05-17T03:12:57;12.60;;;4.50;;
14013;SDS011;49110;52.584;13.408;2023-05-17T03:13:57;10.10;;;4.73;;
14013;SDS011;49110;52.584;13.408;2023-05-17T03:14:58;12.00;;;4.60;;
14013;SDS011;49110;52.584;13.408;2023-05-17T03:15:58;11.37;;;4.40;;
14013;SDS011;49110;52.584;13.408;2023-05-17T03:16:58;12.87;;;4.30;;
14013;SDS011;49110;52.584;13.408;2023-05-17T03:17:59;13.43;;;4.40;;
14013;SDS011;49110;52.584;13.408;2023-05-17T03:18:59;12.27;;;4.70;;
14013;SDS011;49110;52.584;13.408;2023-05-17T03:20:00;11.87;;;4.47;;
14013;SDS011;49110;52.584;13.408;2023-05-17T03:21:00;14.87;;;4.67;;
14013;SDS011;49110;52.584;13.408;2023-05-17T03:22:01;13.20;;;4.37;;
14013;SDS011;49110;52.584;13.408;2023-05-17T03:23:01;12.83;;;4.73;;
14013;SDS011;49110;52.584;13.408;2023-05-17T03:24:02;6.90;;;4.00;;
14013;SDS011;49110;52.584;13.408;2023-05-17T03:25:02;9.87;;;3.93;;
14013;SDS011;49110;52.584;13.408;2023-05-17T03:26:04;9.87;;;4.87;;
14013;SDS011;49110;52.584;13.408;2023-05-17T03:27:05;14.17;;;4.73;;
14013;SDS011;49110;52.584;13.408;2023-05-17T03:28:05;13.93;;;4.80;;
14013;SDS011;49110;52.584;13.408;2023-05-17T03:29:06;9.33;;;4.40;;
14013;SDS011;49110;52.584;13.408;2023-05-17T03:30:06;10.50;;;4.80;;
14013;SDS011;49110;52.584;13.408;2023-05-17T03:31:07;10.17;;;4.53;;
14013;SDS011;49110;52.584;13.408;2023-05-17T03:32:08;8.93;;;4.50;;
14013;SDS011;49110;52.584;13.408;2023-05-17T03:33:08;13.40;;;4.80;;
14013;SDS011;49110;52.584;13.408;2023-05-17T03:34:08;8.73;;;3.80;;
14013;SDS011;49110;52.584;13.408;2023-05-17T03:35:09;12.83;;;5.03;;
14013;SDS011;49110;52.584;13.408;2023-05-17T03:36:10;10.37;;;4.67;;
14013;SDS011;49110;52.584;13.408;2023-05-17T03:37:10;14.07;;;4.90;;
14013;SDS011;49110;52.584;13.408;2023-05-17T03:38:11;10.87;;;4.40;;
14013;SDS011;49110;52.584;13.408;2023-05-17T03:39:12;10.80;;;4.23;;
14013;SDS011;49110;52.584;13.408;2023-05-17T03:40:12;9.33;;;4.53;;
14013;SDS011;49110;52.584;13.408;2023-05-17T03:41:13;12.40;;;4.63;;
14013;SDS011;49110;52.584;13.408;2023-05-17T03:42:14;10.23;;;4.43;;
14013;SDS011;49110;52.584;13.408;2023-05-17T03:43:15;7.73;;;4.10;;
14013;SDS011;49110;52.584;13.408;2023-05-17T03:44:15;11.43;;;4.53;;
14013;SDS011;49110;52.584;13.408;2023-05-17T03:45:16;10.57;;;4.47;;
14013;SDS011;49110;52.584;13.408;2023-05-17T03:46:16;11.67;;;4.63;;
14013;SDS011;49110;52.584;13.408;2023-05-17T03:47:17;14.00;;;4.43;;
14013;SDS011;49110;52.584;13.408;2023-05-17T03:48:17;9.07;;;3.97;;
14013;SDS011;49110;52.584;13.408;2023-05-17T03:49:18;9.70;;;4.10;;
14013;SDS011;49110;52.584;13.408;2023-05-17T03:50:18;13.47;;;4.40;;
14013;SDS011;49110;52.584;13.408;2023-05-17T03:51:19;10.43;;;4.37;;
14013;SDS011;49110;52.584;13.408;2023-05-17T03:52:19;13.43;;;4.77;;
14013;SDS011;49110;52.584;13.408;2023-05-17T03:53:20;10.50;;;4.03;;
14013;SDS011;49110;52.584;13.408;2023-05-17T03:54:20;9.63;;;4.53;;
14013;SDS011;49110;52.584;13.408;2023-05-17T03:55:21;12.27;;;4.50;;
14013;SDS011;49110;52.584;13.408;2023-05-17T03:56:21;10.47;;;4.03;;
14013;SDS011;49110;52.584;13.408;2023-05-17T03:57:22;11.33;;;4.40;;
14013;SDS011;49110;52.584;13.408;2023-05-17T03:58:22;11.83;;;4.33;;
14013;SDS011;49110;52.584;13.408;2023-05-17T03:59:23;11.20;;;4.63;;
14013;SDS011;49110;52.584;13.408;2023-05-17T04:00:23;13.00;;;4.40;;
14013;SDS011;49110;52.584;13.408;2023-05-17T04:01:24;12.87;;;4.90;;
14013;SDS011;49110;52.584;13.408;2023-05-17T04:02:24;14.27;;;4.77;;
14013;SDS011;49110;52.584;13.408;2023-05-17T04:03:25;14.73;;;4.60;;
14013;SDS011;49110;52.584;13.408;2023-05-17T04:04:25;10.93;;;4.70;;
14013;SDS011;49110;52.584;13.408;2023-05-17T04:05:26;11.60;;;4.53;;
14013;SDS011;49110;52.584;13.408;2023-05-17T04:06:26;10.50;;;4.30;;
14013;SDS011;49110;52.584;13.408;2023-05-17T04:07:27;14.07;;;4.63;;
14013;SDS011;49110;52.584;13.408;2023-05-17T04:08:27;13.10;;;4.83;;
14013;SDS011;49110;52.584;13.408;2023-05-17T04:09:29;10.23;;;4.60;;
14013;SDS011;49110;52.584;13.408;2023-05-17T04:10:30;13.73;;;4.90;;
14013;SDS011;49110;52.584;13.408;2023-05-17T04:11:31;11.30;;;4.67;;
14013;SDS011;49110;52.584;13.408;2023-05-17T04:12:32;10.83;;;4.37;;
14013;SDS011;49110;52.584;13.408;2023-05-17T04:13:32;8.50;;;4.57;;
14013;SDS011;49110;52.584;13.408;2023-05-17T04:14:33;18.13;;;5.03;;
14013;SDS011;49110;52.584;13.408;2023-05-17T04:15:34;9.40;;;4.60;;
14013;SDS011;49110;52.584;13.408;2023-05-17T04:16:35;13.27;;;4.93;;
14013;SDS011;49110;52.584;13.408;2023-05-17T04:17:35;13.93;;;4.60;;
14013;SDS011;49110;52.584;13.408;2023-05-17T04:18:36;9.33;;;4.03;;
14013;SDS011;49110;52.584;13.408;2023-05-17T04:19:37;11.70;;;4.30;;
14013;SDS011;49110;52.584;13.408;2023-05-17T04:20:38;13.10;;;4.47;;
14013;SDS011;49110;52.584;13.408;2023-05-17T04:21:38;9.23;;;4.20;;
14013;SDS011;49110;52.584;13.408;2023-05-17T04:22:38;15.30;;;4.60;;
14013;SDS011;49110;52.584;13.408;2023-05-17T04:23:39;10.90;;;4.23;;
14013;SDS011;49110;52.584;13.408;2023-05-17T04:24:40;12.60;;;5.40;;
14013;SDS011;49110;52.584;13.408;2023-05-17T04:25:40;11.87;;;4.70;;
14013;SDS011;49110;52.584;13.408;2023-05-17T04:26:42;9.43;;;4.60;;
14013;SDS011;49110;52.584;13.408;2023-05-17T04:27:46;11.40;;;4.80;;
14013;SDS011;49110;52.584;13.408;2023-05-17T04:28:46;15.43;;;4.60;;
14013;SDS011;49110;52.584;13.408;2023-05-17T04:29:47;9.10;;;4.20;;
14013;SDS011;49110;52.584;13.408;2023-05-17T04:30:48;11.20;;;4.67;;
14013;SDS011;49110;52.584;13.408;2023-05-17T04:31:48;11.60;;;4.37;;
14013;SDS011;49110;52.584;13.408;2023-05-17T04:32:49;12.40;;;4.27;;
14013;SDS011;49110;52.584;13.408;2023-05-17T04:33:49;13.03;;;4.80;;
14013;SDS011;49110;52.584;13.408;2023-05-17T04:34:50;11.10;;;4.30;;
14013;SDS011;49110;52.584;13.408;2023-05-17T04:35:53;11.37;;;4.50;;
14013;SDS011;49110;52.584;13.408;2023-05-17T04:36:54;12.97;;;4.73;;
14013;SDS011;49110;52.584;13.408;2023-05-17T04:37:55;10.30;;;4.63;;
14013;SDS011;49110;52.584;13.408;2023-05-17T04:38:56;12.37;;;4.77;;
14013;SDS011;49110;52.584;13.408;2023-05-17T04:39:57;11.93;;;4.30;;
14013;SDS011;49110;52.584;13.408;2023-05-17T04:41:01;13.30;;;4.50;;
14013;SDS011;49110;52.584;13.408;2023-05-17T04:42:03;13.63;;;5.00;;
14013;SDS011;49110;52.584;13.408;2023-05-17T04:43:03;11.60;;;4.50;;
14013;SDS011;49110;52.584;13.408;2023-05-17T04:44:04;9.93;;;4.87;;
14013;SDS011;49110;52.584;13.408;2023-05-17T04:45:06;14.60;;;4.20;;
14013;SDS011;49110;52.584;13.408;2023-05-17T04:46:07;8.23;;;4.40;;
14013;SDS011;49110;52.584;13.408;2023-05-17T04:47:07;11.80;;;4.37;;
14013;SDS011;49110;52.584;13.408;2023-05-17T04:48:08;12.63;;;4.87;;
14013;SDS011;49110;52.584;13.408;2023-05-17T04:49:08;13.90;;;4.40;;
14013;SDS011;49110;52.584;13.408;2023-05-17T04:50:09;13.70;;;4.70;;
14013;SDS011;49110;52.584;13.408;2023-05-17T04:51:10;13.57;;;5.00;;
14013;SDS011;49110;52.584;13.408;2023-05-17T04:52:10;9.40;;;4.07;;
14013;SDS011;49110;52.584;13.408;2023-05-17T04:53:11;13.77;;;5.00;;
14013;SDS011;49110;52.584;13.408;2023-05-17T04:54:11;12.13;;;4.77;;
14013;SDS011;49110;52.584;13.408;2023-05-17T04:55:12;12.87;;;4.53;;
14013;SDS011;49110;52.584;13.408;2023-05-17T04:56:13;12.37;;;4.90;;
14013;SDS011;49110;52.584;13.408;2023-05-17T04:57:13;11.23;;;4.27;;
14013;SDS011;49110;52.584;13.408;2023-05-17T04:58:14;12.67;;;4.63;;
14013;SDS011;49110;52.584;13.408;2023-05-17T04:59:14;14.03;;;4.53;;
14013;SDS011;49110;52.584;13.408;2023-05-17T05:00:15;12.63;;;5.03;;
14013;SDS011;49110;52.584;13.408;2023-05-17T05:01:16;12.47;;;4.57;;
14013;SDS011;49110;52.584;13.408;2023-05-17T05:02:16;12.17;;;4.50;;
14013;SDS011;49110;52.584;13.408;2023-05-17T05:03:17;12.53;;;4.50;;
14013;SDS011;49110;52.584;13.408;2023-05-17T05:04:17;13.37;;;4.63;;
14013;SDS011;49110;52.584;13.408;2023-05-17T05:05:18;14.07;;;4.77;;
14013;SDS011;49110;52.584;13.408;2023-05-17T05:06:19;11.07;;;4.70;;
14013;SDS011;49110;52.584;13.408;2023-05-17T05:07:21;12.97;;;4.43;;
14013;SDS011;49110;52.584;13.408;2023-05-17T05:08:21;10.77;;;4.37;;
14013;SDS011;49110;52.584;13.408;2023-05-17T05:09:22;12.30;;;4.40;;
14013;SDS011;49110;52.584;13.408;2023-05-17T05:10:22;12.23;;;4.37;;
14013;SDS011;49110;52.584;13.408;2023-05-17T05:11:23;14.10;;;4.83;;
14013;SDS011;49110;52.584;13.408;2023-05-17T05:12:23;9.77;;;4.40;;
14013;SDS011;49110;52.584;13.408;2023-05-17T05:13:24;14.17;;;4.70;;
14013;SDS011;49110;52.584;13.408;2023-05-17T05:14:24;11.73;;;4.13;;
14013;SDS011;49110;52.584;13.408;2023-05-17T05:15:25;15.60;;;4.47;;
14013;SDS011;49110;52.584;13.408;2023-05-17T05:16:26;11.07;;;4.33;;
14013;SDS011;49110;52.584;13.408;2023-05-17T05:17:26;12.80;;;4.43;;
14013;SDS011;49110;52.584;13.408;2023-05-17T05:18:28;10.20;;;4.27;;
14013;SDS011;49110;52.584;13.408;2023-05-17T05:19:28;13.93;;;4.47;;
14013;SDS011;49110;52.584;13.408;2023-05-17T05:20:30;11.83;;;4.43;;
14013;SDS011;49110;52.584;13.408;2023-05-17T05:21:30;9.00;;;4.20;;
14013;SDS011;49110;52.584;13.408;2023-05-17T05:22:31;8.97;;;4.20;;
14013;SDS011;49110;52.584;13.408;2023-05-17T05:23:31;10.93;;;4.57;;
14013;SDS011;49110;52.584;13.408;2023-05-17T05:24:32;11.77;;;4.33;;
14013;SDS011;49110;52.584;13.408;2023-05-17T05:25:36;10.50;;;4.20;;
14013;SDS011;49110;52.584;13.408;2023-05-17T05:26:37;15.20;;;4.63;;
14013;SDS011;49110;52.584;13.408;2023-05-17T05:27:44;13.23;;;4.67;;
14013;SDS011;49110;52.584;13.408;2023-05-17T05:28:51;11.03;;;3.63;;
14013;SDS011;49110;52.584;13.408;2023-05-17T05:30:01;10.47;;;4.63;;
14013;SDS011;49110;52.584;13.408;2023-05-17T05:31:03;14.80;;;5.20;;
14013;SDS011;49110;52.584;13.408;2023-05-17T05:32:04;10.87;;;4.03;;
14013;SDS011;49110;52.584;13.408;2023-05-17T05:33:05;13.23;;;4.60;;
14013;SDS011;49110;52.584;13.408;2023-05-17T05:34:05;17.03;;;4.40;;
14013;SDS011;49110;52.584;13.408;2023-05-17T05:35:06;16.20;;;4.10;;
14013;SDS011;49110;52.584;13.408;2023-05-17T05:36:07;11.13;;;4.30;;
14013;SDS011;49110;52.584;13.408;2023-05-17T05:37:08;10.90;;;4.03;;
14013;SDS011;49110;52.584;13.408;2023-05-17T05:38:08;11.70;;;4.23;;
14013;SDS011;49110;52.584;13.408;2023-05-17T05:39:09;17.27;;;4.60;;
14013;SDS011;49110;52.584;13.408;2023-05-17T05:40:09;15.97;;;4.77;;
14013;SDS011;49110;52.584;13.408;2023-05-17T05:41:10;14.27;;;4.10;;
14013;SDS011;49110;52.584;13.408;2023-05-17T05:42:10;10.07;;;3.87;;
14013;SDS011;49110;52.584;13.408;2023-05-17T05:43:11;13.77;;;4.33;;
14013;SDS011;49110;52.584;13.408;2023-05-17T05:44:12;14.00;;;4.27;;
14013;SDS011;49110;52.584;13.408;2023-05-17T05:45:12;16.00;;;4.67;;
14013;SDS011;49110;52.584;13.408;2023-05-17T05:46:13;11.23;;;4.47;;
14013;SDS011;49110;52.584;13.408;2023-05-17T05:47:13;14.87;;;5.00;;
14013;SDS011;49110;52.584;13.408;2023-05-17T05:48:14;13.37;;;4.50;;
14013;SDS011;49110;52.584;13.408;2023-05-17T05:49:14;18.67;;;4.60;;
14013;SDS011;49110;52.584;13.408;2023-05-17T05:50:15;15.23;;;4.50;;
14013;SDS011;49110;52.584;13.408;2023-05-17T05:51:15;12.17;;;4.43;;
14013;SDS011;49110;52.584;13.408;2023-05-17T05:52:17;12.80;;;4.50;;
14013;SDS011;49110;52.584;13.408;2023-05-17T05:53:21;10.20;;;4.33;;
14013;SDS011;49110;52.584;13.408;2023-05-17T05:54:21;13.30;;;4.30;;
14013;SDS011;49110;52.584;13.408;2023-05-17T05:55:22;10.43;;;4.27;;
14013;SDS011;49110;52.584;13.408;2023-05-17T05:56:22;13.10;;;4.53;;
14013;SDS011;49110;52.584;13.408;2023-05-17T05:57:24;13.07;;;3.87;;
14013;SDS011;49110;52.584;13.408;2023-05-17T05:58:25;13.40;;;4.20;;
14013;SDS011;49110;52.584;13.408;2023-05-17T05:59:26;11.27;;;4.17;;
14013;SDS011;49110;52.584;13.408;2023-05-17T06:00:26;14.70;;;4.20;;
14013;SDS011;49110;52.584;13.408;2023-05-17T06:01:27;13.20;;;4.70;;
14013;SDS011;49110;52.584;13.408;2023-05-17T06:02:28;12.57;;;4.20;;
14013;SDS011;49110;52.584;13.408;2023-05-17T06:03:29;12.43;;;4.00;;
14013;SDS011;49110;52.584;13.408;2023-05-17T06:04:30;12.83;;;4.20;;
14013;SDS011;49110;52.584;13.408;2023-05-17T06:05:30;12.10;;;3.93;;
14013;SDS011;49110;52.584;13.408;2023-05-17T06:06:31;12.43;;;4.43;;